Time;durP1;ratioP1;P1;durP2;ratioP2;P2;SDS_P1;SDS_P2;PMS_P1;PMS_P2;Temp;Humidity;BMP_temperature;BMP_pressure;BME280_temperature;BME280_humidity;BME280_pressure;Samples;Min_cycle;Max_cycle;Signal;HPM_P1;HPM_P2
2020/12/09 00:00:30;;;;;;;75.00;51.33;;;;;;;;;;5069674;28;20443;-62
2020/12/09 00:02:57;;;;;;;62.20;48.07;;;;;;;;;;5052382;28;20444;-62
2020/12/09 00:05:24;;;;;;;73.30;49.50;;;;;;;;;;5071301;28;20485;-63
2020/12/09 00:07:50;;;;;;;64.37;47.27;;;;;;;;;;5070771;28;20453;-62
2020/12/09 00:10:17;;;;;;;63.43;47.13;;;;;;;;;;5071367;28;20458;-62
2020/12/09 00:12:44;;;;;;;66.53;47.87;;;;;;;;;;5071266;28;20439;-62
2020/12/09 00:15:10;;;;;;;73.90;50.67;;;;;;;;;;5070596;28;20954;-62
2020/12/09 00:17:38;;;;;;;67.77;50.43;;;;;;;;;;5069702;28;20882;-62
2020/12/09 00:20:05;;;;;;;71.67;49.70;;;;;;;;;;5071259;28;20481;-62
2020/12/09 00:22:32;;;;;;;73.73;51.37;;;;;;;;;;5071215;28;20451;-62
2020/12/09 00:24:59;;;;;;;78.83;53.00;;;;;;;;;;5070922;28;20828;-62
2020/12/09 00:27:25;;;;;;;79.57;53.10;;;;;;;;;;5071662;28;20483;-63
2020/12/09 00:29:52;;;;;;;79.07;53.77;;;;;;;;;;5071030;28;20518;-63
2020/12/09 00:32:18;;;;;;;83.60;53.67;;;;;;;;;;5071558;28;20446;-62
2020/12/09 00:34:46;;;;;;;79.93;49.90;;;;;;;;;;5059642;28;20463;-62
2020/12/09 00:37:13;;;;;;;79.33;51.30;;;;;;;;;;5054646;28;20443;-62
2020/12/09 00:39:39;;;;;;;86.30;52.80;;;;;;;;;;5072947;28;21021;-62
2020/12/09 00:42:06;;;;;;;86.73;52.90;;;;;;;;;;5071625;28;20447;-63
2020/12/09 00:44:32;;;;;;;85.77;52.10;;;;;;;;;;5071231;28;20451;-63
2020/12/09 00:46:59;;;;;;;72.37;50.47;;;;;;;;;;5075866;28;20490;-63
2020/12/09 00:49:25;;;;;;;78.33;51.60;;;;;;;;;;5075015;28;20482;-63
2020/12/09 00:51:53;;;;;;;79.83;51.77;;;;;;;;;;5074137;28;20946;-62
2020/12/09 00:54:19;;;;;;;95.67;54.20;;;;;;;;;;5074790;28;20454;-63
2020/12/09 00:56:46;;;;;;;91.23;54.93;;;;;;;;;;5075838;28;20818;-63
2020/12/09 00:59:13;;;;;;;74.63;50.07;;;;;;;;;;5075162;28;20470;-63
2020/12/09 01:01:39;;;;;;;95.63;54.13;;;;;;;;;;5074760;28;20443;-62
2020/12/09 01:04:06;;;;;;;85.73;54.73;;;;;;;;;;5074786;28;20447;-62
2020/12/09 01:06:34;;;;;;;86.07;52.47;;;;;;;;;;5074707;28;20488;-62
2020/12/09 01:09:02;;;;;;;72.77;49.93;;;;;;;;;;5072587;28;20474;-62
2020/12/09 01:11:28;;;;;;;81.23;52.37;;;;;;;;;;5054609;28;20530;-62
2020/12/09 01:13:55;;;;;;;93.10;54.00;;;;;;;;;;5062648;28;20465;-62
2020/12/09 01:16:21;;;;;;;87.07;52.70;;;;;;;;;;5074212;28;20470;-61
2020/12/09 01:18:49;;;;;;;74.70;49.97;;;;;;;;;;5074477;28;20465;-62
2020/12/09 01:21:15;;;;;;;81.10;50.13;;;;;;;;;;5074553;28;20492;-62
2020/12/09 01:23:42;;;;;;;86.10;51.63;;;;;;;;;;5073785;28;20443;-62
2020/12/09 01:26:12;;;;;;;83.23;51.00;;;;;;;;;;5075250;28;20488;-63
2020/12/09 01:28:39;;;;;;;75.10;50.10;;;;;;;;;;5074195;28;20470;-62
2020/12/09 01:31:06;;;;;;;78.17;52.23;;;;;;;;;;5074326;28;20807;-62
2020/12/09 01:33:32;;;;;;;86.20;50.17;;;;;;;;;;5073117;28;20462;-62
2020/12/09 01:35:59;;;;;;;83.33;51.83;;;;;;;;;;5073991;28;20481;-62
2020/12/09 01:38:25;;;;;;;80.60;52.83;;;;;;;;;;5073978;28;20466;-62
2020/12/09 01:40:55;;;;;;;82.87;48.97;;;;;;;;;;5074449;28;20458;-62
2020/12/09 01:43:23;;;;;;;80.33;49.53;;;;;;;;;;5073383;28;20958;-63
2020/12/09 01:45:49;;;;;;;78.20;48.90;;;;;;;;;;5073695;28;20475;-63
2020/12/09 01:48:16;;;;;;;86.83;52.00;;;;;;;;;;5071992;28;20490;-62
2020/12/09 01:50:43;;;;;;;75.60;50.87;;;;;;;;;;5074199;28;20443;-62
2020/12/09 01:53:10;;;;;;;86.87;54.70;;;;;;;;;;5074040;28;20443;-62
2020/12/09 01:55:37;;;;;;;81.40;49.73;;;;;;;;;;5074085;28;20449;-62
2020/12/09 01:58:03;;;;;;;88.50;51.80;;;;;;;;;;5073700;28;20814;-62
2020/12/09 02:00:35;;;;;;;86.23;52.83;;;;;;;;;;5074206;28;20824;-63
2020/12/09 02:03:02;;;;;;;83.13;51.13;;;;;;;;;;5074218;28;20474;-62
2020/12/09 02:05:28;;;;;;;79.60;52.07;;;;;;;;;;5073143;28;20443;-62
2020/12/09 02:07:55;;;;;;;77.73;45.70;;;;;;;;;;5073431;28;20474;-63
2020/12/09 02:10:22;;;;;;;88.40;50.83;;;;;;;;;;5074638;28;20439;-63
2020/12/09 02:12:49;;;;;;;78.97;46.97;;;;;;;;;;5075116;28;20443;-62
2020/12/09 02:15:15;;;;;;;78.50;49.13;;;;;;;;;;5073905;28;20945;-63
2020/12/09 02:17:43;;;;;;;84.60;53.33;;;;;;;;;;5073354;28;20439;-63
2020/12/09 02:20:10;;;;;;;73.07;46.10;;;;;;;;;;5073156;28;20823;-63
2020/12/09 02:22:37;;;;;;;77.40;52.07;;;;;;;;;;5073304;28;20443;-63
2020/12/09 02:25:04;;;;;;;84.10;55.10;;;;;;;;;;5071290;28;20446;-63
2020/12/09 02:27:31;;;;;;;76.50;47.13;;;;;;;;;;5072838;28;20482;-63
2020/12/09 02:29:57;;;;;;;85.77;48.87;;;;;;;;;;5072560;28;20477;-62
2020/12/09 02:32:24;;;;;;;77.90;46.23;;;;;;;;;;5073204;28;20604;-63
2020/12/09 02:34:50;;;;;;;73.53;45.80;;;;;;;;;;5072404;28;20864;-63
2020/12/09 02:37:17;;;;;;;70.80;45.33;;;;;;;;;;5073125;28;20446;-63
2020/12/09 02:39:44;;;;;;;64.90;43.80;;;;;;;;;;5072493;28;21020;-61
2020/12/09 02:42:11;;;;;;;73.33;45.37;;;;;;;;;;5071998;28;20461;-62
2020/12/09 02:44:37;;;;;;;76.30;45.60;;;;;;;;;;5072072;28;20454;-62
2020/12/09 02:47:04;;;;;;;76.97;47.57;;;;;;;;;;5072964;28;20483;-62
2020/12/09 02:49:31;;;;;;;76.73;46.57;;;;;;;;;;5072315;28;20474;-61
2020/12/09 02:51:57;;;;;;;81.30;45.03;;;;;;;;;;5072530;28;20447;-61
2020/12/09 02:54:24;;;;;;;70.80;45.50;;;;;;;;;;5072147;28;20443;-62
2020/12/09 02:56:51;;;;;;;70.07;45.40;;;;;;;;;;5070994;28;20443;-62
2020/12/09 02:59:18;;;;;;;77.20;46.80;;;;;;;;;;5071214;28;20471;-62
2020/12/09 03:01:44;;;;;;;82.30;48.50;;;;;;;;;;5072784;28;20451;-61
2020/12/09 03:04:11;;;;;;;75.03;43.50;;;;;;;;;;5072104;28;20447;-62
2020/12/09 03:06:38;;;;;;;84.47;49.00;;;;;;;;;;5072101;28;20491;-61
2020/12/09 03:09:04;;;;;;;83.70;49.80;;;;;;;;;;5072324;28;20558;-61
2020/12/09 03:11:31;;;;;;;85.07;48.10;;;;;;;;;;5072513;28;20443;-62
2020/12/09 03:13:58;;;;;;;83.53;48.40;;;;;;;;;;5070937;28;20451;-62
2020/12/09 03:16:25;;;;;;;81.90;49.07;;;;;;;;;;5072294;28;20447;-62
2020/12/09 03:18:52;;;;;;;78.33;46.03;;;;;;;;;;5072216;28;20467;-62
2020/12/09 03:21:18;;;;;;;83.03;48.10;;;;;;;;;;5072084;28;20459;-60
2020/12/09 03:23:45;;;;;;;76.10;44.23;;;;;;;;;;5072469;28;20439;-62
2020/12/09 03:26:12;;;;;;;80.33;45.83;;;;;;;;;;5072316;28;20486;-61
2020/12/09 03:28:38;;;;;;;84.63;48.20;;;;;;;;;;5072463;28;20463;-61
2020/12/09 03:31:06;;;;;;;78.43;46.47;;;;;;;;;;5067238;28;20487;-62
2020/12/09 03:33:33;;;;;;;82.47;50.30;;;;;;;;;;5052100;28;20448;-61
2020/12/09 03:36:00;;;;;;;92.37;49.50;;;;;;;;;;5059996;28;20453;-62
2020/12/09 03:38:27;;;;;;;88.40;50.30;;;;;;;;;;5072495;28;20966;-61
2020/12/09 03:40:53;;;;;;;79.17;48.03;;;;;;;;;;5071946;28;20977;-62
2020/12/09 03:43:20;;;;;;;85.30;48.10;;;;;;;;;;5071887;28;20805;-62
2020/12/09 03:45:46;;;;;;;80.23;47.60;;;;;;;;;;5071925;28;20458;-61
2020/12/09 03:48:14;;;;;;;80.03;50.00;;;;;;;;;;5070081;28;20466;-61
2020/12/09 03:50:40;;;;;;;80.73;47.20;;;;;;;;;;5071502;28;20455;-62
2020/12/09 03:53:07;;;;;;;81.90;48.73;;;;;;;;;;5071955;28;20443;-62
2020/12/09 03:55:33;;;;;;;81.93;48.83;;;;;;;;;;5071784;28;20457;-62
2020/12/09 03:58:00;;;;;;;87.17;47.57;;;;;;;;;;5060204;28;20458;-62
2020/12/09 04:00:27;;;;;;;77.33;47.70;;;;;;;;;;5053327;28;20436;-61
2020/12/09 04:02:54;;;;;;;70.77;44.17;;;;;;;;;;5071931;28;20494;-61
2020/12/09 04:05:21;;;;;;;81.53;54.37;;;;;;;;;;5070619;28;20456;-63
2020/12/09 04:07:48;;;;;;;79.47;54.67;;;;;;;;;;5071789;28;20482;-61
2020/12/09 04:10:15;;;;;;;76.07;52.63;;;;;;;;;;5071434;28;20521;-61
2020/12/09 04:12:41;;;;;;;82.03;52.43;;;;;;;;;;5075195;28;20447;-60
2020/12/09 04:15:08;;;;;;;80.47;51.97;;;;;;;;;;5074826;28;20481;-63
2020/12/09 04:17:34;;;;;;;82.80;54.87;;;;;;;;;;5075476;28;20934;-63
2020/12/09 04:20:01;;;;;;;80.63;54.60;;;;;;;;;;5065793;28;20463;-63
2020/12/09 04:22:28;;;;;;;84.23;56.10;;;;;;;;;;5075690;28;20454;-63
2020/12/09 04:24:55;;;;;;;77.27;54.87;;;;;;;;;;5074839;28;20443;-64
2020/12/09 04:27:22;;;;;;;79.67;54.00;;;;;;;;;;5075230;28;20486;-63
2020/12/09 04:29:48;;;;;;;85.50;56.20;;;;;;;;;;5074970;28;20463;-63
2020/12/09 04:32:15;;;;;;;81.63;56.10;;;;;;;;;;5075068;28;20443;-64
2020/12/09 04:34:42;;;;;;;83.70;54.80;;;;;;;;;;5074072;28;20453;-64
2020/12/09 04:37:08;;;;;;;78.03;53.63;;;;;;;;;;5075238;28;20445;-64
2020/12/09 04:39:36;;;;;;;80.30;55.27;;;;;;;;;;5074673;28;20557;-64
2020/12/09 04:42:03;;;;;;;82.03;56.83;;;;;;;;;;5074993;28;20449;-64
2020/12/09 04:44:29;;;;;;;74.30;53.13;;;;;;;;;;5074506;28;20447;-64
2020/12/09 04:47:02;;;;;;;81.23;54.23;;;;;;;;;;5074842;28;20482;-64
2020/12/09 04:49:38;;;;;;;77.00;52.20;;;;;;;;;;5068363;28;20485;-64
2020/12/09 04:52:16;;;;;;;83.70;56.40;;;;;;;;;;5061758;28;20454;-63
2020/12/09 04:54:44;;;;;;;83.90;57.83;;;;;;;;;;5074249;28;20546;-64
2020/12/09 04:57:14;;;;;;;84.27;55.33;;;;;;;;;;5075092;28;20538;-62
2020/12/09 04:59:42;;;;;;;82.87;54.70;;;;;;;;;;5074799;28;20474;-63
2020/12/09 05:02:09;;;;;;;80.13;55.33;;;;;;;;;;5074750;28;20446;-63
2020/12/09 05:04:36;;;;;;;79.90;53.20;;;;;;;;;;5063301;28;20825;-63
2020/12/09 05:07:06;;;;;;;81.47;53.40;;;;;;;;;;5074537;28;20486;-63
2020/12/09 05:09:35;;;;;;;74.97;51.30;;;;;;;;;;5074599;28;20478;-63
2020/12/09 05:12:06;;;;;;;73.80;52.13;;;;;;;;;;5074235;28;20443;-62
2020/12/09 05:14:33;;;;;;;68.20;52.40;;;;;;;;;;5074054;28;20482;-62
2020/12/09 05:17:00;;;;;;;74.20;51.50;;;;;;;;;;5074829;28;20431;-62
2020/12/09 05:19:27;;;;;;;78.20;55.03;;;;;;;;;;5073978;28;20479;-64
2020/12/09 05:21:55;;;;;;;74.60;52.33;;;;;;;;;;5073673;28;20458;-62
2020/12/09 05:24:22;;;;;;;69.57;51.40;;;;;;;;;;5073401;28;20462;-62
2020/12/09 05:26:48;;;;;;;69.33;51.83;;;;;;;;;;5074296;28;20493;-62
2020/12/09 05:29:16;;;;;;;74.60;53.50;;;;;;;;;;5073700;28;20479;-62
2020/12/09 05:31:44;;;;;;;79.83;55.20;;;;;;;;;;5072802;28;20443;-62
2020/12/09 05:34:27;;;;;;;75.13;53.87;;;;;;;;;;5073081;28;20458;-62
2020/12/09 05:36:55;;;;;;;72.03;51.90;;;;;;;;;;5074048;28;20439;-62
2020/12/09 05:39:21;;;;;;;78.37;55.00;;;;;;;;;;5073560;28;21085;-62
2020/12/09 05:41:48;;;;;;;78.00;53.97;;;;;;;;;;5074167;28;20435;-62
2020/12/09 05:44:15;;;;;;;79.70;55.83;;;;;;;;;;5073168;28;20450;-62
2020/12/09 05:46:55;;;;;;;80.83;53.90;;;;;;;;;;5074056;28;20497;-63
2020/12/09 05:49:22;;;;;;;77.73;53.60;;;;;;;;;;5073179;28;20486;-62
2020/12/09 05:52:05;;;;;;;81.63;54.23;;;;;;;;;;5074094;28;20447;-62
2020/12/09 05:54:32;;;;;;;76.33;53.73;;;;;;;;;;5073290;28;20461;-62
2020/12/09 05:56:58;;;;;;;83.00;56.97;;;;;;;;;;5073801;28;20446;-63
2020/12/09 05:59:32;;;;;;;82.50;54.70;;;;;;;;;;5073472;28;20843;-62
2020/12/09 06:02:06;;;;;;;81.70;56.30;;;;;;;;;;5068686;28;20459;-62
2020/12/09 06:04:47;;;;;;;81.80;54.07;;;;;;;;;;5062745;28;20450;-62
2020/12/09 06:07:14;;;;;;;74.37;53.73;;;;;;;;;;5071110;28;20864;-63
2020/12/09 06:09:41;;;;;;;76.83;53.50;;;;;;;;;;5072475;28;20471;-62
2020/12/09 06:12:08;;;;;;;81.57;54.73;;;;;;;;;;5073375;28;20453;-62
2020/12/09 06:14:35;;;;;;;79.60;55.30;;;;;;;;;;5072577;28;20900;-62
2020/12/09 06:17:02;;;;;;;82.20;59.43;;;;;;;;;;5070822;28;20829;-62
2020/12/09 06:19:28;;;;;;;81.57;55.70;;;;;;;;;;5060944;28;20471;-63
2020/12/09 06:21:55;;;;;;;84.93;56.80;;;;;;;;;;5073091;28;20957;-62
2020/12/09 06:24:22;;;;;;;79.03;55.10;;;;;;;;;;5072211;28;20644;-62
2020/12/09 06:26:49;;;;;;;89.03;59.00;;;;;;;;;;5072791;28;20482;-62
2020/12/09 06:29:22;;;;;;;85.43;57.13;;;;;;;;;;5070665;28;20470;-62
2020/12/09 06:31:59;;;;;;;78.73;55.10;;;;;;;;;;5073223;28;20469;-62
2020/12/09 06:34:26;;;;;;;85.30;56.90;;;;;;;;;;5071649;28;20836;-62
2020/12/09 06:37:12;;;;;;;80.20;55.10;;;;;;;;;;5072819;28;20447;-61
2020/12/09 06:39:38;;;;;;;79.10;54.97;;;;;;;;;;5072163;28;20481;-62
2020/12/09 06:42:05;;;;;;;79.27;57.17;;;;;;;;;;5072446;28;20820;-61
2020/12/09 06:44:33;;;;;;;80.30;55.77;;;;;;;;;;5060230;28;20808;-62
2020/12/09 06:47:01;;;;;;;79.70;55.67;;;;;;;;;;5053061;28;20483;-62
2020/12/09 06:49:38;;;;;;;80.57;55.47;;;;;;;;;;5066195;28;20998;-62
2020/12/09 06:52:26;;;;;;;87.30;57.77;;;;;;;;;;5072534;28;20450;-62
2020/12/09 06:54:52;;;;;;;84.17;55.83;;;;;;;;;;5072284;28;20454;-63
2020/12/09 06:57:21;;;;;;;68.03;39.63;;;;;;;;;;5074632;28;20453;-62
2020/12/09 06:59:48;;;;;;;73.83;51.07;;;;;;;;;;5061697;28;20472;-62
2020/12/09 07:02:25;;;;;;;73.83;52.63;;;;;;;;;;5054984;28;20451;-62
2020/12/09 07:05:08;;;;;;;85.10;56.97;;;;;;;;;;5072252;28;20451;-62
2020/12/09 07:07:35;;;;;;;88.97;58.40;;;;;;;;;;5076947;28;20482;-62
2020/12/09 07:10:03;;;;;;;82.43;58.40;;;;;;;;;;5076477;28;20477;-62
2020/12/09 07:12:30;;;;;;;81.93;56.40;;;;;;;;;;5075838;28;20545;-62
2020/12/09 07:14:57;;;;;;;84.77;55.43;;;;;;;;;;5073111;28;20454;-62
2020/12/09 07:17:25;;;;;;;84.83;58.17;;;;;;;;;;5072751;28;20443;-62
2020/12/09 07:19:52;;;;;;;85.27;57.67;;;;;;;;;;5071786;28;20913;-62
2020/12/09 07:22:19;;;;;;;82.77;57.67;;;;;;;;;;5072084;28;20451;-62
2020/12/09 07:24:46;;;;;;;80.53;56.13;;;;;;;;;;5071203;28;20516;-62
2020/12/09 07:27:12;;;;;;;81.40;56.27;;;;;;;;;;5071696;28;20475;-62
2020/12/09 07:29:39;;;;;;;84.00;53.80;;;;;;;;;;5071239;28;20475;-62
2020/12/09 07:32:07;;;;;;;80.03;51.30;;;;;;;;;;5072262;28;20439;-62
2020/12/09 07:34:35;;;;;;;74.67;52.87;;;;;;;;;;5070988;28;20508;-62
2020/12/09 07:37:01;;;;;;;76.60;51.60;;;;;;;;;;5072031;28;20442;-62
2020/12/09 07:39:29;;;;;;;81.97;52.97;;;;;;;;;;5071491;28;20569;-62
2020/12/09 07:41:58;;;;;;;79.37;52.60;;;;;;;;;;5071814;28;20791;-62
2020/12/09 07:44:24;;;;;;;84.30;55.70;;;;;;;;;;5057353;28;20513;-62
2020/12/09 07:46:55;;;;;;;79.20;55.67;;;;;;;;;;5051916;28;20483;-62
2020/12/09 07:49:21;;;;;;;75.43;54.63;;;;;;;;;;5070082;28;20482;-62
2020/12/09 07:51:51;;;;;;;79.40;52.83;;;;;;;;;;5071892;28;20443;-62
2020/12/09 07:54:18;;;;;;;74.67;52.67;;;;;;;;;;5070921;28;20457;-62
2020/12/09 07:56:45;;;;;;;79.10;53.83;;;;;;;;;;5071853;28;20987;-62
2020/12/09 07:59:12;;;;;;;80.87;53.80;;;;;;;;;;5068385;28;20480;-62
2020/12/09 08:01:39;;;;;;;30.77;21.77;;;;;;;;;;5065648;28;20451;-62
2020/12/09 08:04:05;;;;;;;37.00;22.30;;;;;;;;;;5067150;28;20461;-65
2020/12/09 08:06:33;;;;;;;34.67;22.60;;;;;;;;;;5071142;28;20926;-64
2020/12/09 08:09:13;;;;;;;35.67;24.77;;;;;;;;;;5071059;28;20817;-64
2020/12/09 08:11:40;;;;;;;32.43;23.27;;;;;;;;;;5071675;28;20957;-64
2020/12/09 08:14:07;;;;;;;27.00;22.03;;;;;;;;;;5070983;28;20455;-65
2020/12/09 08:16:33;;;;;;;28.70;22.63;;;;;;;;;;5071230;28;20470;-64
2020/12/09 08:19:06;;;;;;;25.00;20.30;;;;;;;;;;5071386;28;20479;-65
2020/12/09 08:21:33;;;;;;;28.10;21.40;;;;;;;;;;5070771;28;21011;-64
2020/12/09 08:24:00;;;;;;;28.60;20.87;;;;;;;;;;5071819;28;20453;-64
2020/12/09 08:26:32;;;;;;;27.70;22.20;;;;;;;;;;5063494;28;20997;-64
2020/12/09 08:28:59;;;;;;;36.53;25.77;;;;;;;;;;5067574;28;20929;-63
2020/12/09 08:31:26;;;;;;;38.07;26.57;;;;;;;;;;5070290;28;20465;-63
2020/12/09 08:33:53;;;;;;;39.37;27.27;;;;;;;;;;5070298;28;20546;-63
2020/12/09 08:36:21;;;;;;;32.20;25.17;;;;;;;;;;5068485;28;20530;-63
2020/12/09 08:38:48;;;;;;;34.97;26.13;;;;;;;;;;5051505;28;20528;-63
2020/12/09 08:41:15;;;;;;;34.13;26.07;;;;;;;;;;5059630;28;20477;-63
2020/12/09 08:43:43;;;;;;;33.37;25.37;;;;;;;;;;5069497;28;20447;-63
2020/12/09 08:46:11;;;;;;;33.00;24.60;;;;;;;;;;5070434;28;20821;-63
2020/12/09 08:48:38;;;;;;;40.97;22.47;;;;;;;;;;5069439;28;20783;-65
2020/12/09 08:51:05;;;;;;;36.10;24.30;;;;;;;;;;5065956;28;21012;-66
2020/12/09 08:53:32;;;;;;;37.00;25.50;;;;;;;;;;5070034;28;20450;-65
2020/12/09 08:55:59;;;;;;;37.67;26.30;;;;;;;;;;5069788;28;20455;-65
2020/12/09 08:58:25;;;;;;;32.57;23.20;;;;;;;;;;5072644;28;20467;-67
2020/12/09 09:00:53;;;;;;;28.53;23.60;;;;;;;;;;5073694;28;20451;-66
2020/12/09 09:03:24;;;;;;;31.77;23.80;;;;;;;;;;5073750;28;20445;-67
2020/12/09 09:05:53;;;;;;;29.30;24.10;;;;;;;;;;5073568;28;20451;-67
2020/12/09 09:08:20;;;;;;;32.20;22.03;;;;;;;;;;5072535;28;20486;-67
2020/12/09 09:10:47;;;;;;;28.63;21.53;;;;;;;;;;5070004;28;20451;-67
2020/12/09 09:13:13;;;;;;;28.17;22.63;;;;;;;;;;5066786;28;20464;-64
2020/12/09 09:15:40;;;;;;;37.70;22.00;;;;;;;;;;5055239;28;20454;-64
2020/12/09 09:18:08;;;;;;;29.70;20.40;;;;;;;;;;5055060;28;20458;-66
2020/12/09 09:20:36;;;;;;;44.40;39.93;;;;;;;;;;5055035;28;20444;-63
2020/12/09 09:23:04;;;;;;;47.47;40.30;;;;;;;;;;5057230;28;20443;-63
2020/12/09 09:25:30;;;;;;;54.33;43.53;;;;;;;;;;5072202;28;20476;-63
2020/12/09 09:27:57;;;;;;;55.77;44.33;;;;;;;;;;5074499;28;20491;-63
2020/12/09 09:30:24;;;;;;;61.03;44.60;;;;;;;;;;5074571;28;20443;-63
2020/12/09 09:32:51;;;;;;;58.80;43.67;;;;;;;;;;5073854;28;20451;-63
2020/12/09 09:35:19;;;;;;;54.97;43.40;;;;;;;;;;5073996;28;20443;-63
2020/12/09 09:37:46;;;;;;;59.70;45.33;;;;;;;;;;5074542;28;20441;-63
2020/12/09 09:40:13;;;;;;;57.73;43.07;;;;;;;;;;5073712;28;20477;-63
2020/12/09 09:42:39;;;;;;;58.90;42.63;;;;;;;;;;5074437;28;20949;-63
2020/12/09 09:45:07;;;;;;;58.20;43.67;;;;;;;;;;5074047;28;20443;-63
2020/12/09 09:47:34;;;;;;;62.93;45.90;;;;;;;;;;5074541;28;20483;-62
2020/12/09 09:50:00;;;;;;;60.70;44.50;;;;;;;;;;5073058;28;20483;-62
2020/12/09 09:52:28;;;;;;;61.93;44.73;;;;;;;;;;5074025;28;20470;-62
2020/12/09 09:54:54;;;;;;;57.23;43.13;;;;;;;;;;5074058;28;20926;-62
2020/12/09 09:57:21;;;;;;;52.87;43.27;;;;;;;;;;5073807;28;20449;-62
2020/12/09 09:59:47;;;;;;;55.67;42.63;;;;;;;;;;5069683;28;20467;-65
2020/12/09 10:02:14;;;;;;;61.50;43.53;;;;;;;;;;5070688;28;20454;-63
2020/12/09 10:04:41;;;;;;;52.23;41.67;;;;;;;;;;5072820;28;20459;-63
2020/12/09 10:07:09;;;;;;;59.03;43.07;;;;;;;;;;5073639;28;21252;-63
2020/12/09 10:09:36;;;;;;;58.13;44.07;;;;;;;;;;5072203;28;20501;-63
2020/12/09 10:12:03;;;;;;;54.70;43.33;;;;;;;;;;5073281;28;20451;-63
2020/12/09 10:14:29;;;;;;;56.40;42.90;;;;;;;;;;5069058;28;20815;-63
2020/12/09 10:16:58;;;;;;;40.10;27.67;;;;;;;;;;5054036;28;20444;-63
2020/12/09 10:19:25;;;;;;;59.97;44.40;;;;;;;;;;5072593;28;20486;-63
2020/12/09 10:21:51;;;;;;;57.23;44.20;;;;;;;;;;5071871;28;20452;-63
2020/12/09 10:24:18;;;;;;;60.60;45.50;;;;;;;;;;5072529;28;20459;-63
2020/12/09 10:26:45;;;;;;;58.77;45.67;;;;;;;;;;5072771;28;20486;-62
2020/12/09 10:29:12;;;;;;;63.80;45.30;;;;;;;;;;5073149;28;20474;-62
2020/12/09 10:31:40;;;;;;;63.37;46.83;;;;;;;;;;5069957;28;20451;-63
2020/12/09 10:34:07;;;;;;;62.30;46.67;;;;;;;;;;5071999;28;20453;-62
2020/12/09 10:36:34;;;;;;;47.50;32.60;;;;;;;;;;5072933;28;20453;-62
2020/12/09 10:39:01;;;;;;;64.57;47.40;;;;;;;;;;5069905;28;20475;-62
2020/12/09 10:41:28;;;;;;;63.43;46.17;;;;;;;;;;5073252;28;20443;-62
2020/12/09 10:43:55;;;;;;;68.60;47.97;;;;;;;;;;5072175;28;20836;-62
2020/12/09 10:46:22;;;;;;;61.93;44.73;;;;;;;;;;5073130;28;20451;-62
2020/12/09 10:48:49;;;;;;;64.60;48.17;;;;;;;;;;5070672;28;20491;-65
2020/12/09 10:51:16;;;;;;;63.53;46.40;;;;;;;;;;5053046;28;20447;-62
2020/12/09 10:53:42;;;;;;;75.43;49.27;;;;;;;;;;5069284;28;20455;-62
2020/12/09 10:56:09;;;;;;;64.50;47.97;;;;;;;;;;5072683;28;20459;-62
2020/12/09 10:58:35;;;;;;;60.30;46.33;;;;;;;;;;5072094;28;20469;-63
2020/12/09 11:01:03;;;;;;;69.40;49.00;;;;;;;;;;5072530;28;20815;-62
2020/12/09 11:03:30;;;;;;;65.67;47.47;;;;;;;;;;5070703;28;20449;-63
2020/12/09 11:05:56;;;;;;;60.20;39.27;;;;;;;;;;5072502;28;20541;-63
2020/12/09 11:08:23;;;;;;;33.37;25.50;;;;;;;;;;5072381;28;20867;-63
2020/12/09 11:10:50;;;;;;;59.47;36.93;;;;;;;;;;5071881;28;20453;-63
2020/12/09 11:13:16;;;;;;;57.70;38.93;;;;;;;;;;5072379;28;20443;-63
2020/12/09 11:15:43;;;;;;;26.50;20.53;;;;;;;;;;5071937;28;20451;-63
2020/12/09 11:18:10;;;;;;;63.90;49.43;;;;;;;;;;5073282;28;20447;-62
2020/12/09 11:20:38;;;;;;;64.07;49.37;;;;;;;;;;5071801;28;20456;-63
2020/12/09 11:23:09;;;;;;;69.27;49.97;;;;;;;;;;5072331;28;20451;-62
2020/12/09 11:25:36;;;;;;;65.07;49.83;;;;;;;;;;5071848;28;20459;-62
2020/12/09 11:28:03;;;;;;;66.63;51.07;;;;;;;;;;5071778;28;20489;-65
2020/12/09 11:30:29;;;;;;;70.97;48.60;;;;;;;;;;5072205;28;20447;-62
2020/12/09 11:32:56;;;;;;;65.00;50.83;;;;;;;;;;5071780;28;20462;-62
2020/12/09 11:35:23;;;;;;;63.53;49.80;;;;;;;;;;5071261;28;20450;-62
2020/12/09 11:37:50;;;;;;;64.00;49.13;;;;;;;;;;5071907;28;20451;-63
2020/12/09 11:40:16;;;;;;;67.57;47.97;;;;;;;;;;5063282;28;20451;-63
2020/12/09 11:42:43;;;;;;;65.77;50.40;;;;;;;;;;5062531;28;20447;-65
2020/12/09 11:45:10;;;;;;;68.10;49.80;;;;;;;;;;5071533;28;20451;-62
2020/12/09 11:47:36;;;;;;;68.17;50.43;;;;;;;;;;5071012;28;20986;-63
2020/12/09 11:50:04;;;;;;;67.17;48.73;;;;;;;;;;5054650;28;20830;-63
2020/12/09 11:52:31;;;;;;;66.10;49.20;;;;;;;;;;5070921;28;20457;-65
2020/12/09 11:54:58;;;;;;;65.27;48.03;;;;;;;;;;5071098;28;20446;-62
2020/12/09 11:57:25;;;;;;;60.00;48.13;;;;;;;;;;5071206;28;20453;-62
2020/12/09 11:59:51;;;;;;;64.53;49.10;;;;;;;;;;5059107;28;20474;-63
2020/12/09 12:02:18;;;;;;;68.33;49.90;;;;;;;;;;5067764;28;20450;-62
2020/12/09 12:04:44;;;;;;;65.50;49.13;;;;;;;;;;5071139;28;20814;-62
2020/12/09 12:07:11;;;;;;;62.70;48.13;;;;;;;;;;5071718;28;20490;-63
2020/12/09 12:09:38;;;;;;;67.47;50.43;;;;;;;;;;5071089;28;20481;-63
2020/12/09 12:12:05;;;;;;;67.33;49.60;;;;;;;;;;5071557;28;20825;-63
2020/12/09 12:14:32;;;;;;;64.00;48.50;;;;;;;;;;5071065;28;20453;-63
2020/12/09 12:16:58;;;;;;;65.97;49.90;;;;;;;;;;5071395;28;20927;-62
2020/12/09 12:19:25;;;;;;;61.30;47.67;;;;;;;;;;5066590;28;20473;-62
2020/12/09 12:21:51;;;;;;;68.50;49.20;;;;;;;;;;5071072;28;20459;-63
2020/12/09 12:24:18;;;;;;;65.80;51.00;;;;;;;;;;5071090;28;20455;-63
2020/12/09 12:26:47;;;;;;;68.17;51.07;;;;;;;;;;5071414;28;20443;-62
2020/12/09 12:29:13;;;;;;;67.23;51.47;;;;;;;;;;5071117;28;20481;-65
2020/12/09 12:31:40;;;;;;;65.17;51.83;;;;;;;;;;5071740;28;20798;-63
2020/12/09 12:34:06;;;;;;;70.73;52.20;;;;;;;;;;5073084;28;20454;-63
2020/12/09 12:36:33;;;;;;;67.20;50.70;;;;;;;;;;5064021;28;20950;-65
2020/12/09 12:38:59;;;;;;;63.93;48.47;;;;;;;;;;5075901;28;20482;-63
2020/12/09 12:41:26;;;;;;;67.63;48.57;;;;;;;;;;5075410;28;20451;-63
2020/12/09 12:43:54;;;;;;;72.73;50.87;;;;;;;;;;5074590;28;20983;-63
2020/12/09 12:46:20;;;;;;;64.53;50.17;;;;;;;;;;5075279;28;20485;-63
2020/12/09 12:48:47;;;;;;;68.83;51.43;;;;;;;;;;5073878;28;20842;-63
2020/12/09 12:51:20;;;;;;;61.17;48.20;;;;;;;;;;5075397;28;20941;-63
2020/12/09 12:53:46;;;;;;;67.03;48.90;;;;;;;;;;5073162;28;20458;-63
2020/12/09 12:56:15;;;;;;;67.03;50.20;;;;;;;;;;5074625;28;20453;-65
2020/12/09 12:58:42;;;;;;;62.50;50.10;;;;;;;;;;5074305;28;20466;-62
2020/12/09 13:01:09;;;;;;;69.73;50.13;;;;;;;;;;5073955;28;20451;-62
2020/12/09 13:03:36;;;;;;;66.17;51.37;;;;;;;;;;5067500;28;20440;-62
2020/12/09 13:06:03;;;;;;;66.73;49.07;;;;;;;;;;5068496;28;20847;-64
2020/12/09 13:08:29;;;;;;;71.50;52.70;;;;;;;;;;5074798;28;20494;-62
2020/12/09 13:10:56;;;;;;;67.03;49.93;;;;;;;;;;5072162;28;20470;-62
2020/12/09 13:13:22;;;;;;;63.57;43.87;;;;;;;;;;5074388;28;20823;-62
2020/12/09 13:15:49;;;;;;;60.37;41.27;;;;;;;;;;5074115;28;20457;-64
2020/12/09 13:18:17;;;;;;;75.20;53.37;;;;;;;;;;5075158;28;20500;-63
2020/12/09 13:20:43;;;;;;;67.23;50.40;;;;;;;;;;5073953;28;20453;-62
2020/12/09 13:23:10;;;;;;;68.57;52.13;;;;;;;;;;5073978;28;20553;-63
2020/12/09 13:25:37;;;;;;;70.13;50.93;;;;;;;;;;5074403;28;20533;-65
2020/12/09 13:28:05;;;;;;;69.50;53.33;;;;;;;;;;5073998;28;20868;-62
2020/12/09 13:30:31;;;;;;;67.67;50.77;;;;;;;;;;5074342;28;20446;-63
2020/12/09 13:32:58;;;;;;;73.30;53.40;;;;;;;;;;5074043;28;20443;-63
2020/12/09 13:35:26;;;;;;;66.07;53.20;;;;;;;;;;5070241;28;20455;-63
2020/12/09 13:37:53;;;;;;;71.30;51.70;;;;;;;;;;5074129;28;20500;-63
2020/12/09 13:40:20;;;;;;;74.27;54.57;;;;;;;;;;5063121;28;20466;-63
2020/12/09 13:42:46;;;;;;;71.50;53.03;;;;;;;;;;5071421;28;20475;-62
2020/12/09 13:45:14;;;;;;;69.40;54.50;;;;;;;;;;5073371;28;20463;-63
2020/12/09 13:47:41;;;;;;;69.87;52.23;;;;;;;;;;5074129;28;20475;-63
2020/12/09 13:50:08;;;;;;;67.50;53.10;;;;;;;;;;5073598;28;20482;-63
2020/12/09 13:52:35;;;;;;;71.60;53.97;;;;;;;;;;5073630;28;20451;-62
2020/12/09 13:55:02;;;;;;;69.83;52.50;;;;;;;;;;5054400;28;20451;-63
2020/12/09 13:57:29;;;;;;;69.60;52.80;;;;;;;;;;5059336;28;20443;-63
2020/12/09 13:59:55;;;;;;;67.07;52.20;;;;;;;;;;5073276;28;20463;-63
2020/12/09 14:02:22;;;;;;;73.90;55.47;;;;;;;;;;5073119;28;20458;-63
2020/12/09 14:04:49;;;;;;;67.13;53.53;;;;;;;;;;5071643;28;20962;-62
2020/12/09 14:07:15;;;;;;;77.67;54.60;;;;;;;;;;5065540;28;20498;-62
2020/12/09 14:09:43;;;;;;;76.40;52.97;;;;;;;;;;5070445;28;21028;-63
2020/12/09 14:12:09;;;;;;;76.73;56.57;;;;;;;;;;5064586;28;20456;-62
2020/12/09 14:14:36;;;;;;;80.67;57.33;;;;;;;;;;5065786;28;20446;-63
2020/12/09 14:17:02;;;;;;;74.47;55.57;;;;;;;;;;5072865;28;20463;-62